createdAt,value
2022-10-25T00:00:49.987Z,407.45
2022-10-25T00:03:39.216Z,391.67
2022-10-25T00:06:27.242Z,382.17
2022-10-25T00:09:15.206Z,384.65
2022-10-25T00:12:06.751Z,383.65
2022-10-25T00:14:54.880Z,391.17
2022-10-25T00:17:44.531Z,394.25
2022-10-25T00:20:33.889Z,371.98
2022-10-25T00:23:21.829Z,377.83
2022-10-25T00:26:11.309Z,389.00
2022-10-25T00:28:59.199Z,390.45
2022-10-25T00:31:47.556Z,374.40
2022-10-25T00:34:35.439Z,377.13
2022-10-25T00:37:24.680Z,378.45
2022-10-25T00:40:13.510Z,389.15
2022-10-25T00:43:01.462Z,391.70
2022-10-25T00:45:49.386Z,377.02
2022-10-25T00:48:37.568Z,386.42
2022-10-25T00:51:30.592Z,390.83
2022-10-25T00:54:24.247Z,393.55
2022-10-25T00:57:16.904Z,371.80
2022-10-25T01:00:07.043Z,386.20
2022-10-25T01:05:44.658Z,392.85
2022-10-25T01:08:33.919Z,411.02
2022-10-25T01:11:23.115Z,385.15
2022-10-25T01:14:14.035Z,379.20
2022-10-25T01:17:11.876Z,399.85
2022-10-25T01:20:26.375Z,383.77
2022-10-25T01:23:28.441Z,364.15
2022-10-25T01:26:55.140Z,378.08
2022-10-25T01:30:06.830Z,360.33
2022-10-25T01:33:10.498Z,360.75
2022-10-25T01:36:05.504Z,358.40
2022-10-25T01:39:01.709Z,380.80
2022-10-25T01:42:01.376Z,390.48
2022-10-25T01:44:59.469Z,369.33
2022-10-25T01:47:53.002Z,364.50
2022-10-25T01:50:46.154Z,396.30
2022-10-25T01:53:34.046Z,380.15
2022-10-25T01:56:27.315Z,370.92
2022-10-25T01:59:36.030Z,377.15
2022-10-25T02:02:26.956Z,384.35
2022-10-25T02:05:20.547Z,369.52
2022-10-25T02:08:18.974Z,368.95
2022-10-25T02:11:14.672Z,363.85
2022-10-25T02:14:13.385Z,386.52
2022-10-25T02:17:06.668Z,356.17
2022-10-25T02:20:00.195Z,383.60
2022-10-25T02:22:49.520Z,382.42
2022-10-25T02:25:41.911Z,387.65
2022-10-25T02:28:31.480Z,385.08
2022-10-25T02:31:21.875Z,398.27
2022-10-25T02:34:09.842Z,384.83
2022-10-25T02:36:57.718Z,383.63
2022-10-25T02:39:46.543Z,383.08
2022-10-25T02:42:35.789Z,371.83
2022-10-25T02:45:24.969Z,393.98
2022-10-25T02:48:12.826Z,384.15
2022-10-25T02:51:00.710Z,385.65
2022-10-25T02:53:48.549Z,373.00
2022-10-25T02:56:36.499Z,389.13
2022-10-25T02:59:26.030Z,387.92
2022-10-25T03:02:13.937Z,391.50
2022-10-25T03:05:01.799Z,385.60
2022-10-25T03:07:49.749Z,363.75
2022-10-25T03:10:37.994Z,402.25
2022-10-25T03:13:25.903Z,380.33
2022-10-25T03:16:15.134Z,372.30
2022-10-25T03:19:03.140Z,381.05
2022-10-25T03:21:51.441Z,364.17
2022-10-25T03:24:39.393Z,390.00
2022-10-25T03:27:27.254Z,391.92
2022-10-25T03:30:15.521Z,362.50
2022-10-25T03:33:06.795Z,362.30
2022-10-25T03:35:55.753Z,382.90
2022-10-25T03:38:44.157Z,373.48
2022-10-25T03:41:32.063Z,385.42
2022-10-25T03:44:19.976Z,375.17
2022-10-25T03:47:07.936Z,346.15
2022-10-25T03:49:57.177Z,388.15
2022-10-25T03:52:45.206Z,380.50
2022-10-25T03:55:34.037Z,371.02
2022-10-25T03:58:22.187Z,368.88
2022-10-25T04:01:10.593Z,376.27
2022-10-25T04:03:58.588Z,373.27
2022-10-25T04:06:47.985Z,385.85
2022-10-25T04:09:35.970Z,414.35
2022-10-25T04:12:23.865Z,377.75
2022-10-25T04:15:12.133Z,394.92
2022-10-25T04:17:59.996Z,382.80
2022-10-25T04:20:47.911Z,384.45
2022-10-25T04:23:37.131Z,396.88
2022-10-25T04:26:25.016Z,392.92
2022-10-25T04:29:12.956Z,372.35
2022-10-25T04:32:00.816Z,365.63
2022-10-25T04:34:48.759Z,374.65
2022-10-25T04:37:36.611Z,375.05
2022-10-25T04:40:25.905Z,358.90
2022-10-25T04:43:13.777Z,368.85
2022-10-25T04:46:02.377Z,360.30
2022-10-25T04:48:50.287Z,383.95
2022-10-25T04:51:38.174Z,356.55
2022-10-25T04:54:26.153Z,351.05
2022-10-25T04:57:15.388Z,367.83
2022-10-25T05:00:03.467Z,363.65
2022-10-25T05:02:52.314Z,340.00
2022-10-25T05:05:40.235Z,359.70
2022-10-25T05:08:28.087Z,357.67
2022-10-25T05:11:18.187Z,359.88
2022-10-25T05:14:07.346Z,356.67
2022-10-25T05:16:55.229Z,370.05
2022-10-25T05:19:43.096Z,364.42
2022-10-25T05:22:31.927Z,376.65
2022-10-25T05:25:19.802Z,369.98
2022-10-25T05:28:07.648Z,357.80
2022-10-25T05:30:57.025Z,371.20
2022-10-25T05:33:45.977Z,345.55
2022-10-25T05:36:33.963Z,367.17
2022-10-25T05:39:21.932Z,376.75
2022-10-25T05:42:09.763Z,394.25
2022-10-25T05:44:57.686Z,353.75
2022-10-25T05:47:46.900Z,353.67
2022-10-25T05:50:34.838Z,348.70
2022-10-25T05:53:22.734Z,370.90
2022-10-25T05:56:10.668Z,394.83
2022-10-25T05:58:58.985Z,355.98
2022-10-25T06:01:47.740Z,387.25
2022-10-25T06:04:17.755Z,399.48
2022-10-25T06:06:47.183Z,381.27
2022-10-25T06:09:15.206Z,388.70
2022-10-25T06:11:42.913Z,391.15
2022-10-25T06:14:11.718Z,381.02
2022-10-25T06:16:39.658Z,384.58
2022-10-25T06:19:07.503Z,393.33
2022-10-25T06:21:36.687Z,389.27
2022-10-25T06:24:05.150Z,381.77
2022-10-25T06:26:33.280Z,386.55
2022-10-25T06:29:02.556Z,375.48
2022-10-25T06:31:31.230Z,407.45
2022-10-25T06:33:59.948Z,362.33
2022-10-25T06:36:27.825Z,388.02
2022-10-25T06:38:57.566Z,372.42
2022-10-25T06:41:31.357Z,381.92
2022-10-25T06:44:05.210Z,395.42
2022-10-25T06:46:57.960Z,402.23
2022-10-25T06:49:24.178Z,374.17
2022-10-25T06:51:51.815Z,396.60
2022-10-25T06:54:20.817Z,397.08
2022-10-25T06:56:48.677Z,364.80
2022-10-25T06:59:16.298Z,381.83
2022-10-25T07:01:44.170Z,383.67
2022-10-25T07:04:11.859Z,402.83
2022-10-25T07:06:39.555Z,377.75
2022-10-25T07:09:09.249Z,390.85
2022-10-25T07:11:38.282Z,389.65
2022-10-25T07:14:06.177Z,412.85
2022-10-25T07:16:33.732Z,412.20
2022-10-25T07:19:02.609Z,401.67
2022-10-25T07:21:31.894Z,407.75
2022-10-25T07:23:59.524Z,385.50
2022-10-25T07:26:29.001Z,399.80
2022-10-25T07:28:59.956Z,405.30
2022-10-25T07:31:29.432Z,419.83
2022-10-25T07:33:59.397Z,399.88
2022-10-25T07:36:27.676Z,406.80
2022-10-25T07:38:56.209Z,405.45
2022-10-25T07:41:24.149Z,409.83
2022-10-25T07:43:51.820Z,438.85
2022-10-25T07:46:20.799Z,406.70
2022-10-25T07:48:48.391Z,412.95
2022-10-25T07:51:17.633Z,416.55
2022-10-25T07:53:45.411Z,419.65
2022-10-25T07:56:17.470Z,417.02
2022-10-25T07:58:48.619Z,410.40
2022-10-25T08:01:22.546Z,422.25
2022-10-25T08:03:50.471Z,406.20
2022-10-25T08:06:18.539Z,427.70
2022-10-25T08:08:46.144Z,442.85
2022-10-25T08:11:13.789Z,426.20
2022-10-25T08:13:41.884Z,415.52
2022-10-25T08:16:09.796Z,429.15
2022-10-25T08:18:38.821Z,432.00
2022-10-25T08:21:06.787Z,434.13
2022-10-25T08:23:34.805Z,446.92
2022-10-25T08:26:02.760Z,435.48
2022-10-25T08:28:31.635Z,433.63
2022-10-25T08:31:00.822Z,429.77
2022-10-25T08:33:29.218Z,438.92
2022-10-25T08:36:00.623Z,442.08
2022-10-25T08:38:28.214Z,404.88
2022-10-25T08:41:04.076Z,428.05
2022-10-25T08:43:54.439Z,421.63
2022-10-25T08:46:27.207Z,423.48
2022-10-25T08:49:07.595Z,435.65
2022-10-25T08:51:39.462Z,427.50
2022-10-25T08:54:23.333Z,446.88
2022-10-25T08:57:10.543Z,439.98
2022-10-25T08:59:42.277Z,434.38
2022-10-25T09:02:19.950Z,441.70
2022-10-25T09:04:47.651Z,450.38
2022-10-25T09:07:35.050Z,456.58
2022-10-25T09:10:16.347Z,450.42
2022-10-25T09:12:50.356Z,479.13
2022-10-25T09:15:41.969Z,480.05
2022-10-25T09:18:16.465Z,469.50
2022-10-25T09:20:50.088Z,486.15
2022-10-25T09:23:29.630Z,459.35
2022-10-25T09:26:04.271Z,492.85
2022-10-25T09:28:52.026Z,483.35
2022-10-25T09:31:23.689Z,474.58
2022-10-25T09:34:03.994Z,477.17
2022-10-25T09:36:37.968Z,501.00
2022-10-25T09:39:16.326Z,469.63
2022-10-25T09:41:47.559Z,470.35
2022-10-25T09:44:20.778Z,459.83
2022-10-25T09:46:53.704Z,492.83
2022-10-25T09:49:26.247Z,482.70
2022-10-25T09:52:00.615Z,475.55
2022-10-25T09:54:33.707Z,490.15
2022-10-25T09:57:01.342Z,496.67
2022-10-25T09:59:29.483Z,505.00
2022-10-25T10:01:57.253Z,483.33
2022-10-25T10:04:35.081Z,497.85
2022-10-25T10:07:08.060Z,490.67
2022-10-25T10:09:45.662Z,478.92
2022-10-25T10:12:21.327Z,475.55
2022-10-25T10:14:54.607Z,480.45
2022-10-25T10:17:22.716Z,500.00
2022-10-25T10:20:10.105Z,488.35
2022-10-25T10:22:39.411Z,520.53
2022-10-25T10:25:17.281Z,488.83
2022-10-25T10:27:46.745Z,491.58
2022-10-25T10:30:23.625Z,504.48
2022-10-25T10:32:57.374Z,515.22
2022-10-25T10:35:34.437Z,507.58
2022-10-25T10:38:20.435Z,479.02
2022-10-25T10:40:51.666Z,484.25
2022-10-25T10:43:38.604Z,507.38
2022-10-25T10:46:25.671Z,507.95
2022-10-25T10:48:56.406Z,512.03
2022-10-25T10:51:44.144Z,495.90
2022-10-25T10:54:25.993Z,500.45
2022-10-25T10:57:00.991Z,520.05
2022-10-25T10:59:34.684Z,506.98
2022-10-25T11:02:26.172Z,521.22
2022-10-25T11:04:56.046Z,511.27
2022-10-25T11:07:33.360Z,522.85
2022-10-25T11:10:22.234Z,506.55
2022-10-25T11:13:07.519Z,521.83
2022-10-25T11:15:48.651Z,502.30
2022-10-25T11:18:17.965Z,517.72
2022-10-25T11:20:51.918Z,521.45
2022-10-25T11:23:24.284Z,528.88
2022-10-25T11:25:58.717Z,524.97
2022-10-25T11:28:41.969Z,511.45
2022-10-25T11:31:18.375Z,508.35
2022-10-25T11:33:57.677Z,508.33
2022-10-25T11:36:38.133Z,514.63
2022-10-25T11:39:14.343Z,519.25
2022-10-25T11:41:47.588Z,516.88
2022-10-25T11:44:47.510Z,493.35
2022-10-25T11:47:32.592Z,491.52
2022-10-25T11:50:15.972Z,470.95
2022-10-25T11:53:00.921Z,493.55
2022-10-25T11:55:37.413Z,477.60
2022-10-25T11:58:26.444Z,494.38
2022-10-25T12:01:05.089Z,513.90
2022-10-25T12:03:49.544Z,489.85
2022-10-25T12:06:24.366Z,476.40
2022-10-25T12:09:02.658Z,501.40
2022-10-25T12:11:33.017Z,489.38
2022-10-25T12:14:05.177Z,499.30
2022-10-25T12:16:37.282Z,500.58
2022-10-25T12:19:09.214Z,503.88
2022-10-25T12:21:44.146Z,490.52
2022-10-25T12:24:19.570Z,501.98
2022-10-25T12:26:49.994Z,499.17
2022-10-25T12:29:21.919Z,478.48
2022-10-25T12:31:56.699Z,474.85
2022-10-25T12:34:41.251Z,454.80
2022-10-25T12:37:14.549Z,438.30
2022-10-25T12:39:44.204Z,451.45
2022-10-25T12:42:18.268Z,456.77
2022-10-25T12:45:17.288Z,471.55
2022-10-25T12:47:58.560Z,479.42
2022-10-25T12:50:50.019Z,488.30
2022-10-25T12:53:50.210Z,485.20
2022-10-25T12:56:30.190Z,474.08
2022-10-25T12:59:07.960Z,492.60
2022-10-25T13:01:49.430Z,496.38
2022-10-25T13:04:39.779Z,486.38
2022-10-25T13:07:08.633Z,453.25
2022-10-25T13:09:38.120Z,460.92
2022-10-25T13:12:08.551Z,428.60
2022-10-25T13:14:38.065Z,447.25
2022-10-25T13:17:43.014Z,443.63
2022-10-25T13:20:52.634Z,439.65
2022-10-25T13:24:03.614Z,432.85
2022-10-25T13:26:34.256Z,440.63
2022-10-25T13:29:04.335Z,409.70
2022-10-25T13:31:47.683Z,445.38
2022-10-25T13:34:30.075Z,442.33
2022-10-25T13:37:00.822Z,434.85
2022-10-25T13:39:31.927Z,410.35
2022-10-25T13:42:08.645Z,440.02
2022-10-25T13:44:39.345Z,458.13
2022-10-25T13:47:29.217Z,469.23
2022-10-25T13:49:56.976Z,489.08
2022-10-25T13:52:31.996Z,470.88
2022-10-25T13:55:00.100Z,481.45
2022-10-25T13:57:48.462Z,459.98
2022-10-25T14:00:32.218Z,455.88
2022-10-25T14:03:35.576Z,452.23
2022-10-25T14:06:09.587Z,466.95
2022-10-25T14:08:47.884Z,476.05
2022-10-25T14:11:20.585Z,489.77
2022-10-25T14:13:54.006Z,463.30
2022-10-25T14:16:26.790Z,480.75
2022-10-25T14:18:58.708Z,443.80
2022-10-25T14:21:27.019Z,435.08
2022-10-25T14:23:56.245Z,441.58
2022-10-25T14:26:24.268Z,446.35
2022-10-25T14:28:51.849Z,450.48
2022-10-25T14:31:21.956Z,440.88
2022-10-25T14:33:54.289Z,438.33
2022-10-25T14:36:28.500Z,461.55
2022-10-25T14:38:59.614Z,478.67
2022-10-25T14:41:28.752Z,498.52
2022-10-25T14:43:56.813Z,477.38
2022-10-25T14:46:26.212Z,475.67
2022-10-25T14:48:55.753Z,530.33
2022-10-25T14:51:28.238Z,530.88
2022-10-25T14:54:01.069Z,530.28
2022-10-25T14:56:31.316Z,501.42
2022-10-25T14:59:00.616Z,520.55
2022-10-25T15:01:28.587Z,537.25
2022-10-25T15:03:59.948Z,514.70
2022-10-25T15:06:30.721Z,523.55
2022-10-25T15:09:37.092Z,532.88
2022-10-25T15:12:24.649Z,542.53
2022-10-25T15:14:52.769Z,512.65
2022-10-25T15:17:27.352Z,533.28
2022-10-25T15:20:02.974Z,553.95
2022-10-25T15:22:32.341Z,514.38
2022-10-25T15:25:01.267Z,533.88
2022-10-25T15:27:35.196Z,520.13
2022-10-25T15:30:04.639Z,530.83
2022-10-25T15:32:33.548Z,519.15
2022-10-25T15:35:02.764Z,519.75
2022-10-25T15:37:30.994Z,528.05
2022-10-25T15:39:58.788Z,508.55
2022-10-25T15:42:28.097Z,533.45
2022-10-25T15:44:55.738Z,517.47
2022-10-25T15:47:32.384Z,527.90
2022-10-25T15:50:01.155Z,535.00
2022-10-25T15:52:28.872Z,528.50
2022-10-25T15:54:56.436Z,502.23
2022-10-25T15:57:24.084Z,504.92
2022-10-25T15:59:53.213Z,496.55
2022-10-25T16:02:26.236Z,471.88
2022-10-25T16:04:54.108Z,498.27
2022-10-25T16:07:22.249Z,483.92
2022-10-25T16:09:49.969Z,449.60
2022-10-25T16:12:21.378Z,478.80
2022-10-25T16:14:51.384Z,464.83
2022-10-25T16:17:20.346Z,449.02
2022-10-25T16:19:47.946Z,457.13
2022-10-25T16:22:15.568Z,433.63
2022-10-25T16:24:43.229Z,407.95
2022-10-25T16:27:12.159Z,399.25
2022-10-25T16:29:40.378Z,427.92
2022-10-25T16:32:08.020Z,412.40
2022-10-25T16:34:37.342Z,402.65
2022-10-25T16:37:09.091Z,400.80
2022-10-25T16:39:39.317Z,402.83
2022-10-25T16:42:28.254Z,421.85
2022-10-25T16:44:56.112Z,422.88
2022-10-25T16:47:23.871Z,410.40
2022-10-25T16:49:52.950Z,404.45
2022-10-25T16:52:20.985Z,405.67
2022-10-25T16:54:48.625Z,395.73
2022-10-25T16:57:16.384Z,406.88
2022-10-25T16:59:43.966Z,403.02
2022-10-25T17:02:17.935Z,380.02
2022-10-25T17:04:45.681Z,411.65
2022-10-25T17:07:14.601Z,376.83
2022-10-25T17:09:42.721Z,396.73
2022-10-25T17:12:10.631Z,410.63
2022-10-25T17:14:38.342Z,390.10
2022-10-25T17:17:06.081Z,395.73
2022-10-25T17:19:33.757Z,382.73
2022-10-25T17:22:01.410Z,369.13
2022-10-25T17:24:32.866Z,384.15
2022-10-25T17:27:00.748Z,371.48
2022-10-25T17:29:28.401Z,371.15
2022-10-25T17:31:56.084Z,375.77
2022-10-25T17:34:23.861Z,354.55
2022-10-25T17:39:24.471Z,345.90
2022-10-25T17:41:53.400Z,367.40
2022-10-25T17:44:21.052Z,377.23
2022-10-25T17:46:48.809Z,368.17
2022-10-25T17:49:16.439Z,365.70
2022-10-25T17:51:46.681Z,345.10
2022-10-25T17:54:16.555Z,379.35
2022-10-25T17:56:44.225Z,375.30
2022-10-25T17:59:13.174Z,349.30
2022-10-25T18:01:40.923Z,365.77
2022-10-25T18:04:08.614Z,360.42
2022-10-25T18:06:36.186Z,380.20
2022-10-25T18:09:04.675Z,373.35
2022-10-25T18:11:32.553Z,342.33
2022-10-25T18:14:01.693Z,358.05
2022-10-25T18:16:31.882Z,363.15
2022-10-25T18:19:00.987Z,365.10
2022-10-25T18:21:29.491Z,369.98
2022-10-25T18:23:57.892Z,349.17
2022-10-25T18:26:25.982Z,344.52
2022-10-25T18:28:53.605Z,359.60
2022-10-25T18:31:21.575Z,338.15
2022-10-25T18:33:50.479Z,344.65
2022-10-25T18:36:21.621Z,364.77
2022-10-25T18:38:49.939Z,353.48
2022-10-25T18:41:19.933Z,342.77
2022-10-25T18:43:48.239Z,336.98
2022-10-25T18:46:16.183Z,330.80
2022-10-25T18:48:45.127Z,345.58
2022-10-25T18:51:14.639Z,319.20
2022-10-25T18:53:42.264Z,344.42
2022-10-25T18:56:11.363Z,331.83
2022-10-25T18:58:39.184Z,308.33
2022-10-25T19:01:08.021Z,337.35
2022-10-25T19:03:35.965Z,357.58
2022-10-25T19:06:03.884Z,329.30
2022-10-25T19:08:34.118Z,319.35
2022-10-25T19:11:04.464Z,334.10
2022-10-25T19:13:32.158Z,351.70
2022-10-25T19:16:00.388Z,323.45
2022-10-25T19:18:29.519Z,323.67
2022-10-25T19:21:01.788Z,351.50
2022-10-25T19:23:29.854Z,330.00
2022-10-25T19:26:02.756Z,341.73
2022-10-25T19:28:30.328Z,322.75
2022-10-25T19:30:57.904Z,328.13
2022-10-25T19:33:25.724Z,333.98
2022-10-25T19:35:53.312Z,328.20
2022-10-25T19:38:20.932Z,336.58
2022-10-25T19:40:48.750Z,347.15
2022-10-25T19:43:17.721Z,351.77
2022-10-25T19:45:45.329Z,319.52
2022-10-25T19:48:12.931Z,342.42
2022-10-25T19:50:40.549Z,336.08
2022-10-25T19:53:08.161Z,351.88
2022-10-25T19:55:36.108Z,351.42
2022-10-25T19:58:05.194Z,340.60
2022-10-25T20:00:34.790Z,349.88
2022-10-25T20:03:21.045Z,335.85
2022-10-25T20:06:11.038Z,335.25
2022-10-25T20:09:00.503Z,331.02
2022-10-25T20:11:48.388Z,325.83
2022-10-25T20:14:37.607Z,332.75
2022-10-25T20:17:26.859Z,365.80
2022-10-25T20:20:14.815Z,355.58
2022-10-25T20:23:02.675Z,354.25
2022-10-25T20:25:50.585Z,352.63
2022-10-25T20:28:38.632Z,349.15
2022-10-25T20:31:28.590Z,345.75
2022-10-25T20:34:18.678Z,346.83
2022-10-25T20:37:08.619Z,361.13
2022-10-25T20:39:56.513Z,359.08
2022-10-25T20:42:44.376Z,338.30
2022-10-25T20:45:32.810Z,354.08
2022-10-25T20:48:20.657Z,351.60
2022-10-25T20:51:11.506Z,373.75
2022-10-25T20:54:09.061Z,359.20
2022-10-25T20:56:56.999Z,344.08
2022-10-25T20:59:44.842Z,335.65
2022-10-25T21:02:32.773Z,372.58
2022-10-25T21:05:20.692Z,340.40
2022-10-25T21:08:10.444Z,369.83
2022-10-25T21:10:59.319Z,352.42
2022-10-25T21:13:47.268Z,356.30
2022-10-25T21:16:35.254Z,341.95
2022-10-25T21:19:23.145Z,353.25
2022-10-25T21:22:11.169Z,354.90
2022-10-25T21:25:00.447Z,333.27
2022-10-25T21:27:48.610Z,351.40
2022-10-25T21:30:36.702Z,354.00
2022-10-25T21:33:24.717Z,351.70
2022-10-25T21:36:14.465Z,350.90
2022-10-25T21:39:02.578Z,365.65
2022-10-25T21:41:52.028Z,347.10
2022-10-25T21:44:39.960Z,364.35
2022-10-25T21:47:27.819Z,353.80
2022-10-25T21:50:16.022Z,380.38
2022-10-25T21:53:03.997Z,348.20
2022-10-25T21:55:51.842Z,356.10
2022-10-25T21:58:42.672Z,378.08
2022-10-25T22:01:31.684Z,360.85
2022-10-25T22:04:19.963Z,367.48
2022-10-25T22:07:07.876Z,359.10
2022-10-25T22:09:55.742Z,386.95
2022-10-25T22:12:43.632Z,371.17
2022-10-25T22:15:32.854Z,357.23
2022-10-25T22:18:20.717Z,379.30
2022-10-25T22:21:10.365Z,380.63
2022-10-25T22:23:58.372Z,417.58
2022-10-25T22:26:47.406Z,387.63
2022-10-25T22:29:35.282Z,388.73
2022-10-25T22:32:24.527Z,386.95
2022-10-25T22:35:12.465Z,392.00
2022-10-25T22:38:00.348Z,411.92
2022-10-25T22:40:57.046Z,397.52
2022-10-25T22:43:45.843Z,411.70
2022-10-25T22:46:35.495Z,398.02
2022-10-25T22:49:24.705Z,382.65
2022-10-25T22:52:13.670Z,390.35
2022-10-25T22:55:01.570Z,404.25
2022-10-25T22:57:49.735Z,397.65
2022-10-25T23:00:37.863Z,410.77
2022-10-25T23:03:25.856Z,406.45
2022-10-25T23:06:16.476Z,388.77
2022-10-25T23:09:06.765Z,420.02
2022-10-25T23:11:54.813Z,438.17
2022-10-25T23:14:42.717Z,404.77
2022-10-25T23:17:30.615Z,420.90
2022-10-25T23:20:18.546Z,409.40
2022-10-25T23:23:07.756Z,386.55
2022-10-25T23:25:56.023Z,415.42
2022-10-25T23:28:44.168Z,386.83
2022-10-25T23:31:32.678Z,405.42
2022-10-25T23:34:20.664Z,408.25
2022-10-25T23:37:08.585Z,401.77
2022-10-25T23:39:57.824Z,405.63
2022-10-25T23:42:45.743Z,418.02
2022-10-25T23:45:33.630Z,423.30
2022-10-25T23:48:21.587Z,420.40
2022-10-25T23:51:11.340Z,430.10
2022-10-25T23:53:59.257Z,400.52
2022-10-25T23:56:48.486Z,435.95
2022-10-25T23:59:36.352Z,415.10
